Time;durP1;ratioP1;P1;durP2;ratioP2;P2;SDS_P1;SDS_P2;PMS_P1;PMS_P2;Temp;Humidity;BMP_temperature;BMP_pressure;BME280_temperature;BME280_humidity;BME280_pressure;Samples;Min_cycle;Max_cycle;Signal;HPM_P1;HPM_P2
2021/05/27 00:00:42;;;;;;;3.20;2.17;;;;;;;;;;5013877;28;20373;-49
2021/05/27 00:03:08;;;;;;;2.35;2.15;;;;;;;;;;5015185;28;20225;-49
2021/05/27 00:05:34;;;;;;;5.30;2.35;;;;;;;;;;5006391;28;20038;-49
2021/05/27 00:08:00;;;;;;;2.63;2.10;;;;;;;;;;5012123;28;20049;-50
2021/05/27 00:10:29;;;;;;;3.65;2.40;;;;;;;;;;5012982;28;20026;-47
2021/05/27 00:12:55;;;;;;;3.38;2.10;;;;;;;;;;5011905;28;20026;-47
2021/05/27 00:15:23;;;;;;;5.43;2.50;;;;;;;;;;5012624;28;20030;-49
2021/05/27 00:17:49;;;;;;;2.60;2.13;;;;;;;;;;5027673;28;20473;-47
2021/05/27 00:20:15;;;;;;;3.45;2.60;;;;;;;;;;5012506;28;20052;-52
2021/05/27 00:22:42;;;;;;;3.42;2.35;;;;;;;;;;5012382;28;20156;-47
2021/05/27 00:25:09;;;;;;;4.40;3.00;;;;;;;;;;5013355;28;20046;-51
2021/05/27 00:27:35;;;;;;;5.45;2.63;;;;;;;;;;5017901;28;20466;-49
2021/05/27 00:30:01;;;;;;;6.35;2.60;;;;;;;;;;5013216;28;20819;-47
2021/05/27 00:32:27;;;;;;;3.22;2.53;;;;;;;;;;5022367;28;20045;-48
2021/05/27 00:34:53;;;;;;;4.80;2.80;;;;;;;;;;5015898;28;20145;-48
2021/05/27 00:37:19;;;;;;;3.15;2.65;;;;;;;;;;5015721;28;20041;-47
2021/05/27 00:39:45;;;;;;;3.08;2.53;;;;;;;;;;5015877;28;20026;-53
2021/05/27 00:42:11;;;;;;;4.32;3.38;;;;;;;;;;5013466;28;20092;-47
2021/05/27 00:44:37;;;;;;;4.95;3.70;;;;;;;;;;5011989;28;20112;-47
2021/05/27 00:47:07;;;;;;;6.05;3.35;;;;;;;;;;5015287;28;20025;-48
2021/05/27 00:49:33;;;;;;;4.60;2.78;;;;;;;;;;5015829;28;20398;-52
2021/05/27 00:51:59;;;;;;;4.80;3.35;;;;;;;;;;5015740;28;20034;-47
2021/05/27 00:54:25;;;;;;;5.38;3.15;;;;;;;;;;5015618;28;20109;-47
2021/05/27 00:56:53;;;;;;;8.18;3.17;;;;;;;;;;5015129;28;20101;-47
2021/05/27 00:59:19;;;;;;;3.50;3.20;;;;;;;;;;5015603;28;20453;-48
2021/05/27 01:01:48;;;;;;;4.60;3.13;;;;;;;;;;5014961;28;20485;-47
2021/05/27 01:04:14;;;;;;;3.38;2.60;;;;;;;;;;5010122;28;20029;-47
2021/05/27 01:06:40;;;;;;;5.93;3.55;;;;;;;;;;5014571;28;20048;-49
2021/05/27 01:09:06;;;;;;;7.82;3.05;;;;;;;;;;5015344;28;20112;-48
2021/05/27 01:11:32;;;;;;;7.43;3.05;;;;;;;;;;5015124;28;20469;-47
2021/05/27 01:13:58;;;;;;;4.97;3.25;;;;;;;;;;5015197;28;20029;-50
2021/05/27 01:16:24;;;;;;;5.47;3.53;;;;;;;;;;5008234;28;20449;-51
2021/05/27 01:18:51;;;;;;;3.70;3.15;;;;;;;;;;5014726;28;20485;-47
2021/05/27 01:21:17;;;;;;;4.50;3.10;;;;;;;;;;5015063;28;20532;-50
2021/05/27 01:23:44;;;;;;;4.30;3.20;;;;;;;;;;5015147;28;20120;-47
2021/05/27 01:26:11;;;;;;;4.88;3.20;;;;;;;;;;5014277;28;20065;-47
2021/05/27 01:28:37;;;;;;;5.63;3.63;;;;;;;;;;5021293;28;20022;-52
2021/05/27 01:31:07;;;;;;;7.40;4.38;;;;;;;;;;5015556;28;20052;-47
2021/05/27 01:33:33;;;;;;;5.30;4.07;;;;;;;;;;5014742;28;20033;-48
2021/05/27 01:36:00;;;;;;;4.00;3.50;;;;;;;;;;5014570;28;20033;-47
2021/05/27 01:38:28;;;;;;;3.90;3.42;;;;;;;;;;5004141;28;20034;-47
2021/05/27 01:40:55;;;;;;;6.40;3.63;;;;;;;;;;5014541;28;20101;-49
2021/05/27 01:43:21;;;;;;;4.05;3.60;;;;;;;;;;5014470;28;20053;-47
2021/05/27 01:45:48;;;;;;;3.58;3.10;;;;;;;;;;5012868;28;20500;-47
2021/05/27 01:48:14;;;;;;;6.95;3.45;;;;;;;;;;5014205;28;20057;-47
2021/05/27 01:50:41;;;;;;;5.63;3.95;;;;;;;;;;5014598;28;20375;-47
2021/05/27 01:53:07;;;;;;;6.15;3.42;;;;;;;;;;5014162;28;20378;-52
2021/05/27 01:55:33;;;;;;;6.82;3.40;;;;;;;;;;5015615;28;20026;-49
2021/05/27 01:58:00;;;;;;;6.78;3.83;;;;;;;;;;5014119;28;20477;-47
2021/05/27 02:00:27;;;;;;;4.60;3.58;;;;;;;;;;5014507;28;20033;-47
2021/05/27 02:02:52;;;;;;;5.18;3.35;;;;;;;;;;5002917;28;20018;-49
2021/05/27 02:05:18;;;;;;;4.72;3.17;;;;;;;;;;5001961;28;20362;-47
2021/05/27 02:07:45;;;;;;;7.38;3.75;;;;;;;;;;5013824;28;20057;-49
2021/05/27 02:10:11;;;;;;;3.97;3.47;;;;;;;;;;5014506;28;20030;-48
2021/05/27 02:12:38;;;;;;;6.47;4.07;;;;;;;;;;5013570;28;20026;-47
2021/05/27 02:15:05;;;;;;;6.18;3.78;;;;;;;;;;5014208;28;20026;-47
2021/05/27 02:17:31;;;;;;;7.95;4.25;;;;;;;;;;5013886;28;20484;-48
2021/05/27 02:19:57;;;;;;;5.47;4.40;;;;;;;;;;5012681;28;20033;-48
2021/05/27 02:22:23;;;;;;;5.53;4.75;;;;;;;;;;5013672;28;20041;-49
2021/05/27 02:24:49;;;;;;;5.30;4.40;;;;;;;;;;5014306;28;20026;-49
2021/05/27 02:27:15;;;;;;;5.82;4.38;;;;;;;;;;5013151;28;20112;-49
2021/05/27 02:29:42;;;;;;;7.20;4.47;;;;;;;;;;5013955;28;20149;-48
2021/05/27 02:32:08;;;;;;;5.57;4.25;;;;;;;;;;5013290;28;20041;-49
2021/05/27 02:34:34;;;;;;;5.85;4.15;;;;;;;;;;5013143;28;20486;-47
2021/05/27 02:37:00;;;;;;;8.23;4.20;;;;;;;;;;5013226;28;20026;-48
2021/05/27 02:39:26;;;;;;;7.55;4.32;;;;;;;;;;5013398;28;20037;-47
2021/05/27 02:41:52;;;;;;;5.70;4.20;;;;;;;;;;5013218;28;20407;-47
2021/05/27 02:44:18;;;;;;;5.13;4.07;;;;;;;;;;5013048;28;20117;-49
2021/05/27 02:46:44;;;;;;;7.97;5.05;;;;;;;;;;5013088;28;20048;-47
2021/05/27 02:49:10;;;;;;;7.45;4.75;;;;;;;;;;5013524;28;20117;-49
2021/05/27 02:51:36;;;;;;;7.13;4.45;;;;;;;;;;5007992;28;20109;-47
2021/05/27 02:54:02;;;;;;;4.65;3.80;;;;;;;;;;5010437;28;20041;-47
2021/05/27 02:56:28;;;;;;;6.70;3.90;;;;;;;;;;5018289;28;20017;-48
2021/05/27 02:58:54;;;;;;;4.60;4.10;;;;;;;;;;5018591;28;20030;-47
2021/05/27 03:01:20;;;;;;;6.25;4.93;;;;;;;;;;5019831;28;20105;-47
2021/05/27 03:03:46;;;;;;;5.25;4.25;;;;;;;;;;5017746;28;20573;-47
2021/05/27 03:06:12;;;;;;;4.97;3.90;;;;;;;;;;5012919;28;20076;-52
2021/05/27 03:08:41;;;;;;;6.75;4.53;;;;;;;;;;5013019;28;20411;-47
2021/05/27 03:11:07;;;;;;;6.03;4.05;;;;;;;;;;5000391;28;20386;-50
2021/05/27 03:13:33;;;;;;;4.65;4.25;;;;;;;;;;5012565;28;20034;-47
2021/05/27 03:15:59;;;;;;;5.72;3.78;;;;;;;;;;5010708;28;20521;-47
2021/05/27 03:18:25;;;;;;;4.88;3.30;;;;;;;;;;5007945;28;20076;-49
2021/05/27 03:20:51;;;;;;;6.75;3.85;;;;;;;;;;5013016;28;20041;-47
2021/05/27 03:23:17;;;;;;;5.72;4.03;;;;;;;;;;5013437;28;20049;-49
2021/05/27 03:25:43;;;;;;;5.60;4.20;;;;;;;;;;5003323;28;20025;-47
2021/05/27 03:28:09;;;;;;;4.88;3.50;;;;;;;;;;5012656;28;20065;-47
2021/05/27 03:30:35;;;;;;;5.38;3.72;;;;;;;;;;4999749;28;20092;-50
2021/05/27 03:33:01;;;;;;;6.05;3.80;;;;;;;;;;5012481;28;20029;-51
2021/05/27 03:35:28;;;;;;;5.13;4.00;;;;;;;;;;5012186;28;20474;-48
2021/05/27 03:37:54;;;;;;;8.20;4.07;;;;;;;;;;5012489;28;20026;-49
2021/05/27 03:40:20;;;;;;;7.97;4.20;;;;;;;;;;5012780;28;20041;-49
2021/05/27 03:42:47;;;;;;;7.20;4.00;;;;;;;;;;5012180;28;20454;-50
2021/05/27 03:45:17;;;;;;;5.93;3.90;;;;;;;;;;5012192;28;20034;-50
2021/05/27 03:47:43;;;;;;;7.22;3.72;;;;;;;;;;5011736;28;20025;-50
2021/05/27 03:50:10;;;;;;;5.95;4.10;;;;;;;;;;5012565;28;20048;-49
2021/05/27 03:52:37;;;;;;;5.47;3.83;;;;;;;;;;5012283;28;20413;-49
2021/05/27 03:55:03;;;;;;;5.38;3.85;;;;;;;;;;5013424;28;20030;-49
2021/05/27 03:57:29;;;;;;;6.43;3.75;;;;;;;;;;5007100;28;20447;-49
2021/05/27 04:02:43;;;;;;;5.25;3.75;;;;;;;;;;5010567;28;20087;-49
2021/05/27 04:07:54;;;;;;;3.83;3.25;;;;;;;;;;5011510;28;20080;-50
2021/05/27 04:10:20;;;;;;;6.95;3.75;;;;;;;;;;5009876;28;20033;-49
2021/05/27 04:12:46;;;;;;;4.90;3.67;;;;;;;;;;5013655;28;20034;-48
2021/05/27 04:15:24;;;;;;;5.10;3.50;;;;;;;;;;5011084;28;20041;-51
2021/05/27 04:18:01;;;;;;;7.05;3.40;;;;;;;;;;5005447;28;20065;-51
2021/05/27 04:20:28;;;;;;;4.47;3.72;;;;;;;;;;5012123;28;20382;-50
2021/05/27 04:22:55;;;;;;;7.15;3.50;;;;;;;;;;5012078;28;20470;-49
2021/05/27 04:25:21;;;;;;;5.32;3.28;;;;;;;;;;5011308;28;20022;-49
2021/05/27 04:27:49;;;;;;;4.80;3.25;;;;;;;;;;5011631;28;20022;-52
2021/05/27 04:30:16;;;;;;;4.47;3.03;;;;;;;;;;5011496;28;20061;-49
2021/05/27 04:32:57;;;;;;;4.00;2.92;;;;;;;;;;5011296;28;20472;-49
2021/05/27 04:35:27;;;;;;;4.47;2.97;;;;;;;;;;5011712;28;20482;-49
2021/05/27 04:37:54;;;;;;;4.03;3.28;;;;;;;;;;5011915;28;20489;-51
2021/05/27 04:40:21;;;;;;;4.30;3.30;;;;;;;;;;5011541;28;20052;-49
2021/05/27 04:42:47;;;;;;;5.93;2.88;;;;;;;;;;5011681;28;20057;-49
2021/05/27 04:45:13;;;;;;;3.22;2.78;;;;;;;;;;5010459;28;20080;-50
2021/05/27 04:47:39;;;;;;;8.00;2.97;;;;;;;;;;5002425;28;20054;-49
2021/05/27 04:50:06;;;;;;;4.25;2.78;;;;;;;;;;5011074;28;20378;-49
2021/05/27 04:52:32;;;;;;;6.38;2.88;;;;;;;;;;5010796;28;20112;-49
2021/05/27 04:54:58;;;;;;;3.40;2.50;;;;;;;;;;5016098;28;20413;-49
2021/05/27 04:57:24;;;;;;;3.63;2.97;;;;;;;;;;5020858;28;20030;-49
2021/05/27 04:59:50;;;;;;;5.82;2.65;;;;;;;;;;5023097;28;20033;-52
2021/05/27 05:02:16;;;;;;;4.18;2.85;;;;;;;;;;5012845;28;20537;-50
2021/05/27 05:04:43;;;;;;;3.15;2.85;;;;;;;;;;5010226;28;20116;-52
2021/05/27 05:07:09;;;;;;;2.78;2.50;;;;;;;;;;5026526;28;20117;-51
2021/05/27 05:09:35;;;;;;;4.10;2.58;;;;;;;;;;5020525;28;20049;-50
2021/05/27 05:12:01;;;;;;;4.25;2.25;;;;;;;;;;5024802;28;20026;-49
2021/05/27 05:14:27;;;;;;;5.07;2.55;;;;;;;;;;5018541;28;20053;-49
2021/05/27 05:16:53;;;;;;;4.70;2.28;;;;;;;;;;5020758;28;20374;-49
2021/05/27 05:19:19;;;;;;;5.30;2.47;;;;;;;;;;5015090;28;20074;-49
2021/05/27 05:21:45;;;;;;;2.72;2.38;;;;;;;;;;5014380;28;20022;-50
2021/05/27 05:24:11;;;;;;;4.18;2.55;;;;;;;;;;5014784;28;20032;-49
2021/05/27 05:26:37;;;;;;;4.72;1.90;;;;;;;;;;5017610;28;20101;-50
2021/05/27 05:29:03;;;;;;;3.38;2.42;;;;;;;;;;5026104;28;20105;-49
2021/05/27 05:31:29;;;;;;;4.43;2.15;;;;;;;;;;5019335;28;20103;-49
2021/05/27 05:33:55;;;;;;;2.55;2.00;;;;;;;;;;5025820;28;20060;-51
2021/05/27 05:36:24;;;;;;;3.10;2.58;;;;;;;;;;5013860;28;20022;-51
2021/05/27 05:38:51;;;;;;;2.75;2.17;;;;;;;;;;5019911;28;20047;-50
2021/05/27 05:41:17;;;;;;;2.40;2.20;;;;;;;;;;5017281;28;20057;-49
2021/05/27 05:43:43;;;;;;;5.50;2.50;;;;;;;;;;5027554;28;20029;-50
2021/05/27 05:46:09;;;;;;;2.35;1.98;;;;;;;;;;5031242;28;20517;-51
2021/05/27 05:48:36;;;;;;;3.35;1.80;;;;;;;;;;5013849;28;20397;-50
2021/05/27 05:51:03;;;;;;;3.65;2.00;;;;;;;;;;5014248;28;20029;-50
2021/05/27 05:53:29;;;;;;;4.68;1.90;;;;;;;;;;5013456;28;20026;-51
2021/05/27 05:55:55;;;;;;;3.55;1.90;;;;;;;;;;5016336;28;20048;-53
2021/05/27 05:58:23;;;;;;;2.78;1.65;;;;;;;;;;5020967;28;20445;-49
2021/05/27 06:00:51;;;;;;;2.45;1.95;;;;;;;;;;5017786;28;20068;-51
2021/05/27 06:03:17;;;;;;;2.70;1.73;;;;;;;;;;5023676;28;20060;-51
2021/05/27 06:05:43;;;;;;;5.60;2.17;;;;;;;;;;5017805;28;20057;-49
2021/05/27 06:08:09;;;;;;;3.95;2.20;;;;;;;;;;5015921;28;20374;-51
2021/05/27 06:10:35;;;;;;;3.42;2.25;;;;;;;;;;5013879;28;20033;-51
2021/05/27 06:13:01;;;;;;;3.97;1.95;;;;;;;;;;5019306;28;20034;-50
2021/05/27 06:15:28;;;;;;;3.08;2.33;;;;;;;;;;5014830;28;20033;-50
2021/05/27 06:17:54;;;;;;;3.95;2.30;;;;;;;;;;5016888;28;20097;-51
2021/05/27 06:20:20;;;;;;;2.40;2.20;;;;;;;;;;5019421;28;20021;-51
2021/05/27 06:22:50;;;;;;;2.70;2.05;;;;;;;;;;5027539;28;20041;-49
2021/05/27 06:25:16;;;;;;;2.53;1.80;;;;;;;;;;5027715;28;20393;-50
2021/05/27 06:27:43;;;;;;;3.40;2.30;;;;;;;;;;5015168;28;20098;-52
2021/05/27 06:30:10;;;;;;;4.13;2.85;;;;;;;;;;5014566;28;20142;-52
2021/05/27 06:32:36;;;;;;;5.00;2.60;;;;;;;;;;5013310;28;20052;-51
2021/05/27 06:35:07;;;;;;;2.92;2.30;;;;;;;;;;5029250;28;20035;-50
2021/05/27 06:37:43;;;;;;;3.58;2.22;;;;;;;;;;5023851;28;20105;-49
2021/05/27 06:40:19;;;;;;;4.78;2.55;;;;;;;;;;5017613;28;20399;-53
2021/05/27 06:42:45;;;;;;;4.57;2.67;;;;;;;;;;5017675;28;20022;-50
2021/05/27 06:45:12;;;;;;;3.00;2.30;;;;;;;;;;5022827;28;20041;-50
2021/05/27 06:47:38;;;;;;;5.00;2.47;;;;;;;;;;5015947;28;20497;-50
2021/05/27 06:50:04;;;;;;;3.88;1.95;;;;;;;;;;5019900;28;20033;-53
2021/05/27 06:52:30;;;;;;;4.80;2.30;;;;;;;;;;5022715;28;20041;-49
2021/05/27 06:54:56;;;;;;;3.83;2.50;;;;;;;;;;5020781;28;21241;-49
2021/05/27 06:57:22;;;;;;;5.15;2.17;;;;;;;;;;5024656;28;20036;-49
2021/05/27 06:59:48;;;;;;;4.05;2.08;;;;;;;;;;5022482;28;20053;-49
2021/05/27 07:02:17;;;;;;;1.80;1.50;;;;;;;;;;5021150;28;20461;-48
2021/05/27 07:04:43;;;;;;;3.05;1.80;;;;;;;;;;5020169;28;20030;-47
2021/05/27 07:07:09;;;;;;;2.30;1.90;;;;;;;;;;5005666;28;20034;-47
2021/05/27 07:09:35;;;;;;;5.60;1.90;;;;;;;;;;5019542;28;20103;-48
2021/05/27 07:12:01;;;;;;;2.70;1.73;;;;;;;;;;5017663;28;20025;-51
2021/05/27 07:14:27;;;;;;;1.98;1.35;;;;;;;;;;5025457;28;20828;-51
2021/05/27 07:16:53;;;;;;;2.08;1.42;;;;;;;;;;5020339;28;20053;-48
2021/05/27 07:19:19;;;;;;;1.77;1.33;;;;;;;;;;5010555;28;20041;-48
2021/05/27 07:21:45;;;;;;;2.00;1.23;;;;;;;;;;5016986;28;20105;-51
2021/05/27 07:24:11;;;;;;;2.35;1.55;;;;;;;;;;5025964;28;20022;-50
2021/05/27 07:26:37;;;;;;;1.67;1.48;;;;;;;;;;5014915;28;20032;-54
2021/05/27 07:29:03;;;;;;;2.92;1.40;;;;;;;;;;5031023;28;20397;-48
2021/05/27 07:31:30;;;;;;;2.05;1.42;;;;;;;;;;5016805;28;20058;-47
2021/05/27 07:33:56;;;;;;;2.58;1.80;;;;;;;;;;5018104;28;20037;-49
2021/05/27 07:36:22;;;;;;;1.67;1.58;;;;;;;;;;5023337;28;20029;-47
2021/05/27 07:38:48;;;;;;;4.15;1.42;;;;;;;;;;5021859;28;20033;-48
2021/05/27 07:41:14;;;;;;;2.53;1.30;;;;;;;;;;5014423;28;20123;-49
2021/05/27 07:43:41;;;;;;;2.22;1.40;;;;;;;;;;5015293;28;20037;-47
2021/05/27 07:46:07;;;;;;;3.45;1.70;;;;;;;;;;5013895;28;20378;-47
2021/05/27 07:48:33;;;;;;;2.45;1.33;;;;;;;;;;5018277;28;20029;-48
2021/05/27 07:50:59;;;;;;;2.63;1.42;;;;;;;;;;5018557;28;20566;-48
2021/05/27 07:53:26;;;;;;;2.22;1.42;;;;;;;;;;5028857;28;20397;-47
2021/05/27 07:55:52;;;;;;;1.38;1.10;;;;;;;;;;5025497;28;20037;-47
2021/05/27 07:58:18;;;;;;;1.50;1.20;;;;;;;;;;5022715;28;20549;-51
2021/05/27 08:00:44;;;;;;;1.42;1.00;;;;;;;;;;5032122;28;20090;-49
2021/05/27 08:03:10;;;;;;;1.40;1.17;;;;;;;;;;5016342;28;20035;-48
2021/05/27 08:05:36;;;;;;;2.00;1.38;;;;;;;;;;5020841;28;20083;-47
2021/05/27 08:08:02;;;;;;;4.45;1.50;;;;;;;;;;5032156;28;20018;-48
2021/05/27 08:10:28;;;;;;;1.70;1.48;;;;;;;;;;5017302;28;20026;-47
2021/05/27 08:12:54;;;;;;;3.63;1.70;;;;;;;;;;5016135;28;20064;-50
2021/05/27 08:15:21;;;;;;;2.00;1.45;;;;;;;;;;5022804;28;20066;-49
2021/05/27 08:17:47;;;;;;;2.72;1.88;;;;;;;;;;5019090;28;20063;-50
2021/05/27 08:20:13;;;;;;;2.83;1.92;;;;;;;;;;5030555;28;20025;-50
2021/05/27 08:22:39;;;;;;;2.25;1.88;;;;;;;;;;5031603;28;20032;-50
2021/05/27 08:25:06;;;;;;;2.33;1.80;;;;;;;;;;5026255;28;20025;-47
2021/05/27 08:27:32;;;;;;;2.38;1.65;;;;;;;;;;5024819;28;20408;-47
2021/05/27 08:29:59;;;;;;;2.05;1.58;;;;;;;;;;5031234;28;20099;-48
2021/05/27 08:32:25;;;;;;;2.85;1.58;;;;;;;;;;5031776;28;20026;-48
2021/05/27 08:34:51;;;;;;;5.22;2.17;;;;;;;;;;5030235;28;20032;-47
2021/05/27 08:37:17;;;;;;;3.85;1.85;;;;;;;;;;5028098;28;20113;-49
2021/05/27 08:39:44;;;;;;;5.00;2.72;;;;;;;;;;5020324;28;20040;-48
2021/05/27 08:42:10;;;;;;;5.72;2.50;;;;;;;;;;5021978;28;20472;-50
2021/05/27 08:44:37;;;;;;;3.63;1.88;;;;;;;;;;5029385;28;20068;-50
2021/05/27 08:47:03;;;;;;;5.47;2.17;;;;;;;;;;5021675;28;20179;-48
2021/05/27 08:49:29;;;;;;;3.42;2.03;;;;;;;;;;5019139;28;20060;-47
2021/05/27 08:51:55;;;;;;;2.75;1.52;;;;;;;;;;5026366;28;20057;-47
2021/05/27 08:54:21;;;;;;;4.30;2.00;;;;;;;;;;5019886;28;20115;-47
2021/05/27 08:56:47;;;;;;;3.97;2.17;;;;;;;;;;5026908;28;20018;-49
2021/05/27 08:59:13;;;;;;;2.72;1.92;;;;;;;;;;5030897;28;20026;-49
2021/05/27 09:01:58;;;;;;;2.95;1.58;;;;;;;;;;5026561;28;21331;-47
2021/05/27 09:04:24;;;;;;;2.40;1.50;;;;;;;;;;5030864;28;20029;-47
2021/05/27 09:06:50;;;;;;;1.50;1.33;;;;;;;;;;5031153;28;20079;-48
2021/05/27 09:09:16;;;;;;;1.30;1.20;;;;;;;;;;5029440;28;20025;-53
2021/05/27 09:11:45;;;;;;;1.48;1.00;;;;;;;;;;5032410;28;20028;-50
2021/05/27 09:14:11;;;;;;;1.10;0.80;;;;;;;;;;5031688;28;20022;-52
2021/05/27 09:16:38;;;;;;;2.03;0.90;;;;;;;;;;5027634;28;20068;-52
2021/05/27 09:19:12;;;;;;;1.77;0.90;;;;;;;;;;5027670;28;20029;-47
2021/05/27 09:21:39;;;;;;;0.82;0.70;;;;;;;;;;5018656;28;20049;-47
2021/05/27 09:24:06;;;;;;;0.50;0.50;;;;;;;;;;5031954;28;20104;-50
2021/05/27 09:26:32;;;;;;;1.50;0.60;;;;;;;;;;5018556;28;20034;-47
2021/05/27 09:29:11;;;;;;;0.98;0.55;;;;;;;;;;5021677;28;20108;-48
2021/05/27 09:31:55;;;;;;;0.63;0.30;;;;;;;;;;5011255;28;20049;-48
2021/05/27 09:34:21;;;;;;;0.30;0.30;;;;;;;;;;5032809;28;20044;-48
2021/05/27 09:36:58;;;;;;;0.70;0.30;;;;;;;;;;5020729;28;20026;-47
2021/05/27 09:39:24;;;;;;;1.13;0.50;;;;;;;;;;5022546;28;20022;-48
2021/05/27 09:41:59;;;;;;;1.88;0.60;;;;;;;;;;5032624;28;20029;-47
2021/05/27 09:44:26;;;;;;;3.30;0.50;;;;;;;;;;5016402;28;20057;-47
2021/05/27 09:46:56;;;;;;;1.73;0.30;;;;;;;;;;5026859;28;20052;-47
2021/05/27 09:49:23;;;;;;;1.40;0.40;;;;;;;;;;5033074;28;20022;-47
2021/05/27 09:52:12;;;;;;;2.15;0.50;;;;;;;;;;5028940;28;20021;-48
2021/05/27 09:54:57;;;;;;;1.10;0.60;;;;;;;;;;5029218;28;20389;-48
2021/05/27 09:57:23;;;;;;;1.55;0.40;;;;;;;;;;5024155;28;20122;-47
2021/05/27 09:59:49;;;;;;;0.30;0.30;;;;;;;;;;5023588;28;20022;-48
2021/05/27 10:02:17;;;;;;;1.02;0.30;;;;;;;;;;5030092;28;20097;-47
2021/05/27 10:05:03;;;;;;;1.58;0.35;;;;;;;;;;5020426;28;20548;-48
2021/05/27 10:07:40;;;;;;;0.55;0.40;;;;;;;;;;5014687;28;20026;-49
2021/05/27 10:10:07;;;;;;;1.15;0.50;;;;;;;;;;5013054;28;20030;-49
2021/05/27 10:12:41;;;;;;;1.65;0.60;;;;;;;;;;5012964;28;20084;-47
2021/05/27 10:15:07;;;;;;;;;;;;;;;;;;5019055;28;20515;-47
2021/05/27 10:17:33;;;;;;;0.47;0.32;;;;;;;;;;5019589;28;19916;-52
2021/05/27 10:19:59;;;;;;;4.25;0.60;;;;;;;;;;5011051;28;20050;-52
2021/05/27 10:22:25;;;;;;;0.63;0.40;;;;;;;;;;5014195;28;20422;-51
2021/05/27 10:24:51;;;;;;;0.50;0.22;;;;;;;;;;5013790;28;20060;-50
2021/05/27 10:27:17;;;;;;;1.88;0.40;;;;;;;;;;5016250;28;20041;-48
2021/05/27 10:29:43;;;;;;;0.40;0.40;;;;;;;;;;5020353;28;20053;-48
2021/05/27 10:32:10;;;;;;;1.08;0.55;;;;;;;;;;5013723;28;20030;-49
2021/05/27 10:34:44;;;;;;;1.92;0.50;;;;;;;;;;5013529;28;20026;-49
2021/05/27 10:37:11;;;;;;;0.93;0.43;;;;;;;;;;5013343;28;20038;-48
2021/05/27 10:39:37;;;;;;;0.85;0.45;;;;;;;;;;5013730;28;20022;-47
2021/05/27 10:42:03;;;;;;;0.30;0.30;;;;;;;;;;5013991;28;20057;-48
2021/05/27 10:44:29;;;;;;;1.05;0.40;;;;;;;;;;5012099;28;20064;-48
2021/05/27 10:46:55;;;;;;;1.10;0.40;;;;;;;;;;5008711;28;20044;-48
2021/05/27 10:49:40;;;;;;;1.83;0.40;;;;;;;;;;5012702;28;20030;-47
2021/05/27 10:52:33;;;;;;;0.45;0.30;;;;;;;;;;5005987;28;20039;-47
2021/05/27 10:54:59;;;;;;;0.43;0.32;;;;;;;;;;5008671;28;20037;-49
2021/05/27 10:57:40;;;;;;;0.45;0.45;;;;;;;;;;5017717;28;20104;-51
2021/05/27 11:00:15;;;;;;;0.63;0.43;;;;;;;;;;5012487;28;20033;-49
2021/05/27 11:02:41;;;;;;;0.60;0.30;;;;;;;;;;5014840;28;20487;-50
2021/05/27 11:05:13;;;;;;;0.63;0.30;;;;;;;;;;5012574;28;20026;-49
2021/05/27 11:07:39;;;;;;;1.17;0.30;;;;;;;;;;5023644;28;20030;-51
2021/05/27 11:10:25;;;;;;;0.63;0.30;;;;;;;;;;5011312;28;20600;-49
2021/05/27 11:13:06;;;;;;;0.73;0.30;;;;;;;;;;5013366;28;20132;-51
2021/05/27 11:15:32;;;;;;;0.43;0.40;;;;;;;;;;5010975;28;20033;-51
2021/05/27 11:18:00;;;;;;;0.93;0.30;;;;;;;;;;5013036;28;20455;-50
2021/05/27 11:20:28;;;;;;;0.60;0.40;;;;;;;;;;5010285;28;20030;-49
2021/05/27 11:22:58;;;;;;;0.50;0.30;;;;;;;;;;5017827;28;20055;-49
2021/05/27 11:25:26;;;;;;;0.70;0.55;;;;;;;;;;5020420;28;20549;-51
2021/05/27 11:28:18;;;;;;;1.45;0.45;;;;;;;;;;5014665;28;20030;-53
2021/05/27 11:30:52;;;;;;;0.30;0.30;;;;;;;;;;5016173;28;20628;-52
2021/05/27 11:33:30;;;;;;;4.15;0.35;;;;;;;;;;5011969;28;20417;-49
2021/05/27 11:36:00;;;;;;;0.65;0.30;;;;;;;;;;5031247;28;20108;-50
2021/05/27 11:38:27;;;;;;;0.47;0.22;;;;;;;;;;5018586;28;20077;-51
2021/05/27 11:40:55;;;;;;;3.38;0.35;;;;;;;;;;5013780;28;20377;-50
2021/05/27 11:43:36;;;;;;;0.40;0.25;;;;;;;;;;5010934;28;20386;-48
2021/05/27 11:46:12;;;;;;;0.20;0.20;;;;;;;;;;5007961;28;20365;-47
2021/05/27 11:48:42;;;;;;;0.20;0.20;;;;;;;;;;4999778;28;20026;-47
2021/05/27 11:51:12;;;;;;;0.25;0.25;;;;;;;;;;5016505;28;20184;-51
2021/05/27 11:53:39;;;;;;;0.10;0.10;;;;;;;;;;5002118;28;20034;-48
2021/05/27 11:56:06;;;;;;;1.00;0.28;;;;;;;;;;5014176;28;20461;-52
2021/05/27 11:58:36;;;;;;;0.30;0.30;;;;;;;;;;5012574;28;20052;-49
2021/05/27 12:01:15;;;;;;;0.20;0.20;;;;;;;;;;5010764;28;20034;-51
2021/05/27 12:03:41;;;;;;;0.25;0.22;;;;;;;;;;5005635;28;20034;-48
2021/05/27 12:06:07;;;;;;;0.43;0.15;;;;;;;;;;5013375;28;20359;-52
2021/05/27 12:08:41;;;;;;;0.28;0.10;;;;;;;;;;5011971;28;20038;-48
2021/05/27 12:11:08;;;;;;;0.77;0.30;;;;;;;;;;5015427;28;20045;-49
2021/05/27 12:13:34;;;;;;;1.50;0.38;;;;;;;;;;5016474;28;20033;-49
2021/05/27 12:16:00;;;;;;;0.32;0.20;;;;;;;;;;5010356;28;20018;-51
2021/05/27 12:18:26;;;;;;;0.35;0.32;;;;;;;;;;5013455;28;20026;-53
2021/05/27 12:20:52;;;;;;;0.22;0.17;;;;;;;;;;5012663;28;20029;-52
2021/05/27 12:23:19;;;;;;;0.20;0.20;;;;;;;;;;5023520;28;20108;-52
2021/05/27 12:25:47;;;;;;;0.35;0.20;;;;;;;;;;5010310;28;20041;-49
2021/05/27 12:28:16;;;;;;;0.10;0.10;;;;;;;;;;5011541;28;20374;-50
2021/05/27 12:30:44;;;;;;;0.65;0.20;;;;;;;;;;5027489;28;20124;-50
2021/05/27 12:33:15;;;;;;;0.55;0.20;;;;;;;;;;5015037;28;20053;-48
2021/05/27 12:35:41;;;;;;;0.30;0.20;;;;;;;;;;5022524;28;20045;-48
2021/05/27 12:38:09;;;;;;;0.88;0.20;;;;;;;;;;5034612;28;20441;-48
2021/05/27 12:40:40;;;;;;;0.63;0.17;;;;;;;;;;5015756;28;20497;-48
2021/05/27 12:43:25;;;;;;;0.38;0.20;;;;;;;;;;5013442;28;20033;-50
2021/05/27 12:45:52;;;;;;;0.28;0.20;;;;;;;;;;5006014;28;20037;-48
2021/05/27 12:48:19;;;;;;;0.17;0.17;;;;;;;;;;5007403;28;20041;-52
2021/05/27 12:51:06;;;;;;;0.80;0.30;;;;;;;;;;5009718;28;20551;-49
2021/05/27 12:53:35;;;;;;;0.50;0.22;;;;;;;;;;5021736;28;20041;-48
2021/05/27 12:56:21;;;;;;;1.58;0.20;;;;;;;;;;5018592;28;20108;-48
2021/05/27 12:58:51;;;;;;;0.40;0.10;;;;;;;;;;5013780;28;20108;-48
2021/05/27 13:01:29;;;;;;;0.20;0.10;;;;;;;;;;5011443;28;20114;-47
2021/05/27 13:03:55;;;;;;;1.08;0.30;;;;;;;;;;5012168;28;20041;-47
2021/05/27 13:06:22;;;;;;;0.22;0.20;;;;;;;;;;5023527;28;20489;-53
2021/05/27 13:08:48;;;;;;;0.75;0.40;;;;;;;;;;5014262;28;20125;-50
2021/05/27 13:11:27;;;;;;;2.88;0.40;;;;;;;;;;5013890;28;20508;-51
2021/05/27 13:13:54;;;;;;;0.80;0.50;;;;;;;;;;5019687;28;20064;-55
2021/05/27 13:16:39;;;;;;;1.85;0.40;;;;;;;;;;5026314;28;20022;-52
2021/05/27 13:19:07;;;;;;;1.85;0.60;;;;;;;;;;5011844;28;20029;-51
2021/05/27 13:21:47;;;;;;;2.03;0.50;;;;;;;;;;5014189;28;20032;-55
2021/05/27 13:24:13;;;;;;;4.25;0.80;;;;;;;;;;5016745;28;20029;-52
2021/05/27 13:26:39;;;;;;;2.30;0.70;;;;;;;;;;5020826;28;20108;-53
2021/05/27 13:29:06;;;;;;;4.13;0.75;;;;;;;;;;5020864;28;20042;-51
2021/05/27 13:31:33;;;;;;;4.85;1.02;;;;;;;;;;5018862;28;20050;-51
2021/05/27 13:33:59;;;;;;;1.10;0.50;;;;;;;;;;5014441;28;20113;-52
2021/05/27 13:36:25;;;;;;;0.60;0.38;;;;;;;;;;5024403;28;20028;-51
2021/05/27 13:38:51;;;;;;;1.27;0.50;;;;;;;;;;5013251;28;20103;-53
2021/05/27 13:41:20;;;;;;;1.13;0.68;;;;;;;;;;5023938;28;20022;-51
2021/05/27 13:43:46;;;;;;;1.38;0.60;;;;;;;;;;5017045;28;20029;-53
2021/05/27 13:46:12;;;;;;;3.25;0.73;;;;;;;;;;5014958;28;20052;-50
2021/05/27 13:48:38;;;;;;;3.25;1.50;;;;;;;;;;5014415;28;20041;-53
2021/05/27 13:51:07;;;;;;;1.77;0.70;;;;;;;;;;5012711;28;20037;-52
2021/05/27 13:53:33;;;;;;;1.42;0.50;;;;;;;;;;5021515;28;20022;-53
2021/05/27 13:56:01;;;;;;;2.45;0.47;;;;;;;;;;5027630;28;20022;-52
2021/05/27 13:58:27;;;;;;;1.80;0.50;;;;;;;;;;5020077;28;20068;-51
2021/05/27 14:00:53;;;;;;;1.55;0.30;;;;;;;;;;5021174;28;20095;-50
2021/05/27 14:03:20;;;;;;;1.83;0.30;;;;;;;;;;5021140;28;20105;-52
2021/05/27 14:05:47;;;;;;;0.40;0.20;;;;;;;;;;5010248;28;20465;-54
2021/05/27 14:08:14;;;;;;;1.30;0.20;;;;;;;;;;5017028;28;20135;-50
2021/05/27 14:10:40;;;;;;;0.98;0.28;;;;;;;;;;5015685;28;20029;-51
2021/05/27 14:13:08;;;;;;;0.57;0.20;;;;;;;;;;5013931;28;20025;-54
2021/05/27 14:15:34;;;;;;;0.35;0.10;;;;;;;;;;5022446;28;20017;-51
2021/05/27 14:18:00;;;;;;;0.28;0.20;;;;;;;;;;5017849;28;20060;-50
2021/05/27 14:20:26;;;;;;;0.88;0.20;;;;;;;;;;5012829;28;20777;-48
2021/05/27 14:22:52;;;;;;;2.92;0.20;;;;;;;;;;5013524;28;20052;-49
2021/05/27 14:25:19;;;;;;;0.60;0.20;;;;;;;;;;5012275;28;20052;-50
2021/05/27 14:27:45;;;;;;;0.30;0.17;;;;;;;;;;5013572;28;20364;-48
2021/05/27 14:30:11;;;;;;;0.30;0.10;;;;;;;;;;5012429;28;20154;-48
2021/05/27 14:32:38;;;;;;;0.63;0.13;;;;;;;;;;5012541;28;20026;-52
2021/05/27 14:35:05;;;;;;;0.20;0.20;;;;;;;;;;5012753;28;20042;-51
2021/05/27 14:37:31;;;;;;;0.35;0.35;;;;;;;;;;5012082;28;20026;-48
2021/05/27 14:39:57;;;;;;;0.35;0.20;;;;;;;;;;5011521;28;20436;-48
2021/05/27 14:42:23;;;;;;;1.25;0.32;;;;;;;;;;5012308;28;20114;-52
2021/05/27 14:44:49;;;;;;;1.50;0.28;;;;;;;;;;5017545;28;21251;-49
2021/05/27 14:47:15;;;;;;;0.60;0.30;;;;;;;;;;5021622;28;20037;-49
2021/05/27 14:49:41;;;;;;;0.82;0.20;;;;;;;;;;5012419;28;20492;-50
2021/05/27 14:52:07;;;;;;;0.32;0.30;;;;;;;;;;5021724;28;20033;-49